createdAt,value
2022-11-15T00:00:38.598Z,99.90
2022-11-15T00:03:06.136Z,99.90
2022-11-15T00:05:36.236Z,99.90
2022-11-15T00:08:03.879Z,99.90
2022-11-15T00:10:31.481Z,99.90
2022-11-15T00:12:59.048Z,99.90
2022-11-15T00:15:27.966Z,99.90
2022-11-15T00:17:55.617Z,99.90
2022-11-15T00:20:23.228Z,99.90
2022-11-15T00:22:50.793Z,99.90
2022-11-15T00:25:18.380Z,99.90
2022-11-15T00:27:46.250Z,99.90
2022-11-15T00:30:14.281Z,99.90
2022-11-15T00:32:43.237Z,99.90
2022-11-15T00:35:10.894Z,99.90
2022-11-15T00:37:38.419Z,99.90
2022-11-15T00:40:07.667Z,99.90
2022-11-15T00:42:35.341Z,99.90
2022-11-15T00:45:03.009Z,99.90
2022-11-15T00:47:30.596Z,99.90
2022-11-15T00:49:59.609Z,99.90
2022-11-15T00:52:27.199Z,99.90
2022-11-15T00:54:54.768Z,99.90
2022-11-15T00:57:22.316Z,99.90
2022-11-15T00:59:49.933Z,99.90
2022-11-15T01:02:17.480Z,99.90
2022-11-15T01:04:45.057Z,99.90
2022-11-15T01:07:14.059Z,99.90
2022-11-15T01:09:41.634Z,99.90
2022-11-15T01:12:09.214Z,99.90
2022-11-15T01:14:36.788Z,99.90
2022-11-15T01:17:04.429Z,99.90
2022-11-15T01:19:31.995Z,99.90
2022-11-15T01:21:59.601Z,99.90
2022-11-15T01:24:28.901Z,99.90
2022-11-15T01:26:56.426Z,99.90
2022-11-15T01:29:24.157Z,99.90
2022-11-15T01:31:51.751Z,99.90
2022-11-15T01:34:19.312Z,99.90
2022-11-15T01:36:46.855Z,99.90
2022-11-15T01:39:14.454Z,99.90
2022-11-15T01:41:43.449Z,99.90
2022-11-15T01:44:29.651Z,99.90
2022-11-15T01:46:57.237Z,99.90
2022-11-15T01:49:25.584Z,99.90
2022-11-15T01:51:53.375Z,99.90
2022-11-15T01:54:21.993Z,99.90
2022-11-15T01:56:53.407Z,99.90
2022-11-15T01:59:21.448Z,99.90
2022-11-15T02:01:49.152Z,99.90
2022-11-15T02:04:18.883Z,99.90
2022-11-15T02:06:47.537Z,99.90
2022-11-15T02:09:15.258Z,99.90
2022-11-15T02:11:43.429Z,99.90
2022-11-15T02:20:44.388Z,99.90
2022-11-15T02:23:27.112Z,99.90
2022-11-15T02:25:59.502Z,99.90
2022-11-15T02:28:37.027Z,99.90
2022-11-15T02:31:10.014Z,99.90
2022-11-15T02:33:41.055Z,99.90
2022-11-15T02:36:12.343Z,99.90
2022-11-15T02:38:43.044Z,99.90
2022-11-15T02:41:12.914Z,99.90
2022-11-15T02:44:05.733Z,99.90
2022-11-15T02:46:57.275Z,99.90
2022-11-15T02:49:26.214Z,99.90
2022-11-15T02:51:54.594Z,99.80
2022-11-15T02:54:31.769Z,99.90
2022-11-15T02:57:01.867Z,99.90
2022-11-15T02:59:50.894Z,99.90
2022-11-15T03:02:27.366Z,99.90
2022-11-15T03:04:56.888Z,99.90
2022-11-15T03:07:30.243Z,99.90
2022-11-15T03:10:03.839Z,99.90
2022-11-15T03:12:36.654Z,99.90
2022-11-15T03:15:07.802Z,99.90
2022-11-15T03:17:39.713Z,99.90
2022-11-15T03:20:08.689Z,99.90
2022-11-15T03:22:38.619Z,99.90
2022-11-15T03:25:11.975Z,99.90
2022-11-15T03:27:41.532Z,99.90
2022-11-15T03:30:10.372Z,99.90
2022-11-15T03:32:40.769Z,99.90
2022-11-15T03:35:10.221Z,99.90
2022-11-15T03:37:40.202Z,99.90
2022-11-15T03:40:08.719Z,99.90
2022-11-15T03:42:39.658Z,99.90
2022-11-15T03:45:10.944Z,99.90
2022-11-15T03:47:41.764Z,99.90
2022-11-15T03:50:13.952Z,99.90
2022-11-15T03:52:42.963Z,99.90
2022-11-15T03:55:12.976Z,99.90
2022-11-15T03:57:40.920Z,99.90
2022-11-15T04:00:09.449Z,99.90
2022-11-15T04:02:37.471Z,99.90
2022-11-15T04:05:07.016Z,99.90
2022-11-15T04:07:34.761Z,99.90
2022-11-15T04:14:28.803Z,99.90
2022-11-15T04:17:03.702Z,99.90
2022-11-15T04:20:08.832Z,99.90
2022-11-15T04:23:06.885Z,99.90
2022-11-15T04:25:36.033Z,99.90
2022-11-15T04:28:03.880Z,99.90
2022-11-15T04:30:31.965Z,99.90
2022-11-15T04:33:00.434Z,99.90
2022-11-15T04:35:28.789Z,99.90
2022-11-15T04:37:58.568Z,99.90
2022-11-15T04:40:26.564Z,99.90
2022-11-15T04:43:03.851Z,99.90
2022-11-15T04:45:41.687Z,99.90
2022-11-15T04:48:13.553Z,99.90
2022-11-15T04:50:41.532Z,99.90
2022-11-15T04:53:10.891Z,99.90
2022-11-15T04:55:41.027Z,99.90
2022-11-15T04:58:11.509Z,99.90
2022-11-15T05:00:40.898Z,99.90
2022-11-15T05:06:08.966Z,99.90
2022-11-15T05:08:53.489Z,99.90
2022-11-15T05:11:21.416Z,99.90
2022-11-15T05:13:49.743Z,99.90
2022-11-15T05:16:18.057Z,99.90
2022-11-15T05:18:46.212Z,99.90
2022-11-15T05:21:14.985Z,99.90
2022-11-15T05:23:44.192Z,99.90
2022-11-15T05:26:12.613Z,99.90
2022-11-15T05:28:40.535Z,99.90
2022-11-15T05:31:12.580Z,99.90
2022-11-15T05:33:41.196Z,99.90
2022-11-15T05:36:11.777Z,99.90
2022-11-15T05:38:39.851Z,99.90
2022-11-15T05:41:10.882Z,99.90
2022-11-15T05:43:40.532Z,99.90
2022-11-15T05:46:08.338Z,99.90
2022-11-15T05:48:37.359Z,99.90
2022-11-15T05:51:08.848Z,99.90
2022-11-15T05:53:52.010Z,99.90
2022-11-15T05:56:29.625Z,99.90
2022-11-15T05:58:59.704Z,99.90
2022-11-15T06:01:28.468Z,99.90
2022-11-15T06:04:03.213Z,99.90
2022-11-15T06:06:31.398Z,99.90
2022-11-15T06:09:05.193Z,99.90
2022-11-15T06:11:34.362Z,99.90
2022-11-15T06:14:08.011Z,99.90
2022-11-15T06:16:36.186Z,99.90
2022-11-15T06:19:04.120Z,99.90
2022-11-15T06:21:32.023Z,99.90
2022-11-15T06:23:59.785Z,99.90
2022-11-15T06:26:27.628Z,99.90
2022-11-15T06:28:57.772Z,99.90
2022-11-15T06:31:25.619Z,99.90
2022-11-15T06:33:53.373Z,99.90
2022-11-15T06:36:21.703Z,99.90
2022-11-15T06:38:49.579Z,99.90
2022-11-15T06:41:17.897Z,99.90
2022-11-15T06:43:45.515Z,99.90
2022-11-15T06:46:15.109Z,99.90
2022-11-15T06:48:44.019Z,99.90
2022-11-15T06:51:11.751Z,99.90
2022-11-15T06:53:40.226Z,99.90
2022-11-15T06:56:08.768Z,99.90
2022-11-15T06:58:37.011Z,99.90
2022-11-15T07:01:06.203Z,99.90
2022-11-15T07:03:36.047Z,99.90
2022-11-15T07:06:07.942Z,99.90
2022-11-15T07:08:36.024Z,99.90
2022-11-15T07:11:07.520Z,99.90
2022-11-15T07:13:36.402Z,99.90
2022-11-15T07:16:04.735Z,99.90
2022-11-15T07:18:32.489Z,99.90
2022-11-15T07:21:04.339Z,99.50
2022-11-15T07:23:32.594Z,99.90
2022-11-15T07:26:00.725Z,99.60
2022-11-15T07:28:28.619Z,99.90
2022-11-15T07:30:56.957Z,99.90
2022-11-15T07:33:24.682Z,99.20
2022-11-15T07:35:52.460Z,99.60
2022-11-15T07:38:21.703Z,99.90
2022-11-15T07:40:49.510Z,99.80
2022-11-15T07:43:20.556Z,99.60
2022-11-15T07:45:48.272Z,99.60
2022-11-15T07:48:16.146Z,99.80
2022-11-15T07:50:44.358Z,99.00
2022-11-15T07:53:12.662Z,99.10
2022-11-15T07:55:44.288Z,98.90
2022-11-15T07:58:14.795Z,99.20
2022-11-15T08:00:42.494Z,98.90
2022-11-15T08:03:11.612Z,98.10
2022-11-15T08:05:40.081Z,98.60
2022-11-15T08:08:08.232Z,98.40
2022-11-15T08:10:40.559Z,98.50
2022-11-15T08:13:13.440Z,98.20
2022-11-15T08:15:41.549Z,98.10
2022-11-15T08:18:15.354Z,98.20
2022-11-15T08:20:45.108Z,98.20
2022-11-15T08:23:13.736Z,98.20
2022-11-15T08:25:41.832Z,98.30
2022-11-15T08:28:12.056Z,98.50
2022-11-15T08:30:43.137Z,98.10
2022-11-15T08:33:19.790Z,98.30
2022-11-15T08:35:48.360Z,98.10
2022-11-15T08:38:16.218Z,98.10
2022-11-15T08:40:54.969Z,97.60
2022-11-15T08:43:24.164Z,98.10
2022-11-15T08:45:52.040Z,98.10
2022-11-15T08:48:19.787Z,97.50
2022-11-15T08:50:47.561Z,97.80
2022-11-15T08:53:21.423Z,97.60
2022-11-15T08:55:50.545Z,97.50
2022-11-15T08:58:18.612Z,97.60
2022-11-15T09:00:47.893Z,97.30
2022-11-15T09:03:18.425Z,97.50
2022-11-15T09:05:46.380Z,97.90
2022-11-15T09:08:40.873Z,97.50
2022-11-15T09:11:04.926Z,97.20
2022-11-15T09:13:40.899Z,97.70
2022-11-15T09:16:10.167Z,97.60
2022-11-15T09:18:38.187Z,97.50
2022-11-15T09:21:12.944Z,97.30
2022-11-15T09:23:41.702Z,97.30
2022-11-15T09:26:09.621Z,97.40
2022-11-15T09:28:39.126Z,96.80
2022-11-15T09:31:10.008Z,97.10
2022-11-15T09:33:39.172Z,97.00
2022-11-15T09:36:08.079Z,96.80
2022-11-15T09:38:36.970Z,96.70
2022-11-15T09:41:24.187Z,97.20
2022-11-15T09:43:56.847Z,96.80
2022-11-15T09:46:30.300Z,96.70
2022-11-15T09:49:00.380Z,96.40
2022-11-15T09:51:47.395Z,96.10
2022-11-15T09:57:19.572Z,96.40
2022-11-15T10:03:06.471Z,96.20
2022-11-15T10:05:42.387Z,96.00
2022-11-15T10:08:15.737Z,95.60
2022-11-15T10:14:07.714Z,95.20
2022-11-15T10:16:58.607Z,95.40
2022-11-15T10:19:30.432Z,95.50
2022-11-15T10:22:02.645Z,95.70
2022-11-15T10:24:37.826Z,95.60
2022-11-15T10:27:10.382Z,95.20
2022-11-15T10:29:38.169Z,95.50
2022-11-15T10:32:07.469Z,94.70
2022-11-15T10:34:37.847Z,95.30
2022-11-15T10:37:06.969Z,95.30
2022-11-15T10:39:35.621Z,95.30
2022-11-15T10:42:18.084Z,95.30
2022-11-15T10:44:46.990Z,95.50
2022-11-15T10:47:30.248Z,95.30
2022-11-15T10:50:00.619Z,95.50
2022-11-15T10:52:32.687Z,95.60
2022-11-15T10:55:03.485Z,95.40
2022-11-15T10:57:32.668Z,95.50
2022-11-15T11:00:02.578Z,95.30
2022-11-15T11:02:46.109Z,95.40
2022-11-15T11:19:05.765Z,95.30
2022-11-15T11:21:40.134Z,94.80
2022-11-15T11:24:12.965Z,94.90
2022-11-15T11:26:43.895Z,94.90
2022-11-15T11:29:23.002Z,95.00
2022-11-15T11:31:55.552Z,94.90
2022-11-15T11:34:32.247Z,94.90
2022-11-15T11:37:01.554Z,94.70
2022-11-15T11:39:33.786Z,94.80
2022-11-15T11:42:05.753Z,94.80
2022-11-15T11:44:36.897Z,94.50
2022-11-15T11:47:09.000Z,94.30
2022-11-15T11:49:41.176Z,94.10
2022-11-15T11:52:12.142Z,94.40
2022-11-15T11:54:43.250Z,94.10
2022-11-15T11:57:14.588Z,94.40
2022-11-15T11:59:45.153Z,94.10
2022-11-15T12:02:16.330Z,94.00
2022-11-15T12:04:47.346Z,94.60
2022-11-15T12:07:17.553Z,94.20
2022-11-15T12:09:46.667Z,94.20
2022-11-15T12:12:19.459Z,94.30
2022-11-15T12:14:49.172Z,94.10
2022-11-15T12:17:18.115Z,93.90
2022-11-15T12:19:47.267Z,93.90
2022-11-15T12:22:19.921Z,94.00
2022-11-15T12:24:50.346Z,94.00
2022-11-15T12:27:25.106Z,93.90
2022-11-15T12:29:55.805Z,93.90
2022-11-15T12:32:27.377Z,93.60
2022-11-15T12:34:56.691Z,93.80
2022-11-15T12:37:56.238Z,93.70
2022-11-15T12:40:25.642Z,93.70
2022-11-15T12:43:00.587Z,93.70
2022-11-15T12:45:29.694Z,93.90
2022-11-15T12:48:13.749Z,93.80
2022-11-15T12:50:59.847Z,93.90
2022-11-15T12:53:28.933Z,94.00
2022-11-15T12:56:15.866Z,93.90
2022-11-15T12:58:44.170Z,94.00
2022-11-15T13:01:12.260Z,93.90
2022-11-15T13:03:54.729Z,94.00
2022-11-15T13:06:42.577Z,93.80
2022-11-15T13:09:28.970Z,94.10
2022-11-15T13:11:57.092Z,94.00
2022-11-15T13:14:40.568Z,94.10
2022-11-15T13:17:26.636Z,94.30
2022-11-15T13:19:57.513Z,94.20
2022-11-15T13:22:58.935Z,94.10
2022-11-15T13:25:44.208Z,94.20
2022-11-15T13:28:13.929Z,94.10
2022-11-15T13:30:42.228Z,94.00
2022-11-15T13:33:10.700Z,94.10
2022-11-15T13:35:40.795Z,94.20
2022-11-15T13:38:20.247Z,94.40
2022-11-15T13:40:47.797Z,94.00
2022-11-15T13:43:28.594Z,94.40
2022-11-15T13:46:06.015Z,94.20
2022-11-15T13:48:34.793Z,94.20
2022-11-15T13:51:03.671Z,94.40
2022-11-15T13:53:33.699Z,94.20
2022-11-15T13:56:01.374Z,94.20
2022-11-15T13:58:29.091Z,94.10
2022-11-15T14:01:01.021Z,94.10
2022-11-15T14:03:29.781Z,94.30
2022-11-15T14:06:08.604Z,94.40
2022-11-15T14:08:37.972Z,94.20
2022-11-15T14:11:15.501Z,94.30
2022-11-15T14:13:43.546Z,94.30
2022-11-15T14:16:14.702Z,94.40
2022-11-15T14:18:46.657Z,94.30
2022-11-15T14:21:14.503Z,94.30
2022-11-15T14:23:43.626Z,94.40
2022-11-15T14:26:27.420Z,94.50
2022-11-15T14:28:55.126Z,94.60
2022-11-15T14:31:22.903Z,94.50
2022-11-15T14:33:50.919Z,94.60
2022-11-15T14:36:19.309Z,94.80
2022-11-15T14:38:48.477Z,94.90
2022-11-15T14:41:19.877Z,95.10
2022-11-15T14:43:47.515Z,95.10
2022-11-15T14:46:15.192Z,95.30
2022-11-15T14:48:42.888Z,95.10
2022-11-15T14:51:15.857Z,95.30
2022-11-15T14:53:43.946Z,95.60
2022-11-15T14:56:13.474Z,95.30
2022-11-15T14:58:44.209Z,95.30
2022-11-15T15:01:14.204Z,95.60
2022-11-15T15:03:41.821Z,95.80
2022-11-15T15:06:16.538Z,95.90
2022-11-15T15:08:45.421Z,96.00
2022-11-15T15:11:16.343Z,96.40
2022-11-15T15:13:44.460Z,96.20
2022-11-15T15:16:12.004Z,96.10
2022-11-15T15:18:39.592Z,96.10
2022-11-15T15:21:17.265Z,96.20
2022-11-15T15:23:44.820Z,96.20
2022-11-15T15:26:12.343Z,96.40
2022-11-15T15:28:41.566Z,96.40
2022-11-15T15:31:10.307Z,96.50
2022-11-15T15:33:37.892Z,96.70
2022-11-15T15:36:05.764Z,96.70
2022-11-15T15:38:33.839Z,96.80
2022-11-15T15:41:03.794Z,96.70
2022-11-15T15:43:31.382Z,96.90
2022-11-15T15:46:00.250Z,97.20
2022-11-15T15:48:27.801Z,97.20
2022-11-15T15:50:55.365Z,97.30
2022-11-15T15:53:22.966Z,97.40
2022-11-15T15:55:50.535Z,97.40
2022-11-15T15:58:18.088Z,97.70
2022-11-15T16:00:45.630Z,97.80
2022-11-15T16:03:14.545Z,97.90
2022-11-15T16:05:42.064Z,98.10
2022-11-15T16:08:14.379Z,98.00
2022-11-15T16:10:41.939Z,98.30
2022-11-15T16:13:09.495Z,98.20
2022-11-15T16:15:37.202Z,98.40
2022-11-15T16:18:05.860Z,98.60
2022-11-15T16:20:40.220Z,98.60
2022-11-15T16:23:09.649Z,98.70
2022-11-15T16:25:42.520Z,98.70
2022-11-15T16:28:16.713Z,98.90
2022-11-15T16:30:44.304Z,98.90
2022-11-15T16:33:11.979Z,98.70
2022-11-15T16:35:40.857Z,98.60
2022-11-15T16:38:10.323Z,98.50
2022-11-15T16:40:37.924Z,98.60
2022-11-15T16:43:06.412Z,98.50
2022-11-15T16:45:35.574Z,98.50
2022-11-15T16:48:03.480Z,98.90
2022-11-15T16:50:32.806Z,98.90
2022-11-15T16:53:02.103Z,99.10
2022-11-15T16:55:30.505Z,98.70
2022-11-15T16:57:58.908Z,98.50
2022-11-15T17:00:26.835Z,98.80
2022-11-15T17:02:55.928Z,98.80
2022-11-15T17:05:24.398Z,98.80
2022-11-15T17:07:54.158Z,98.90
2022-11-15T17:10:23.560Z,99.10
2022-11-15T17:12:51.239Z,99.20
2022-11-15T17:15:19.053Z,99.40
2022-11-15T17:17:51.752Z,99.20
2022-11-15T17:20:19.978Z,99.90
2022-11-15T17:22:47.577Z,99.70
2022-11-15T17:25:15.546Z,99.90
2022-11-15T17:27:44.456Z,99.90
2022-11-15T17:30:13.417Z,99.90
2022-11-15T17:32:40.971Z,99.90
2022-11-15T17:35:14.874Z,99.90
2022-11-15T17:37:43.207Z,99.90
2022-11-15T17:40:11.292Z,99.90
2022-11-15T17:42:41.262Z,99.90
2022-11-15T17:45:11.379Z,99.90
2022-11-15T17:47:38.920Z,99.90
2022-11-15T17:50:06.792Z,99.90
2022-11-15T17:52:34.743Z,99.90
2022-11-15T17:55:02.278Z,99.90
2022-11-15T17:57:29.858Z,99.90
2022-11-15T17:59:57.436Z,99.90
2022-11-15T18:02:26.335Z,99.90
2022-11-15T18:04:53.859Z,99.90
2022-11-15T18:07:21.503Z,99.90
2022-11-15T18:09:49.124Z,99.90
2022-11-15T18:12:16.962Z,99.90
2022-11-15T18:14:44.547Z,99.90
2022-11-15T18:17:12.142Z,99.90
2022-11-15T18:19:41.025Z,99.90
2022-11-15T18:22:10.193Z,99.90
2022-11-15T18:24:38.910Z,99.80
2022-11-15T18:27:07.450Z,99.80
2022-11-15T18:29:37.587Z,99.90
2022-11-15T18:32:11.340Z,99.80
2022-11-15T18:34:39.014Z,99.60
2022-11-15T18:37:08.182Z,99.40
2022-11-15T18:39:35.859Z,99.40
2022-11-15T18:42:03.519Z,99.30
2022-11-15T18:44:31.249Z,99.40
2022-11-15T18:46:58.866Z,99.30
2022-11-15T18:49:26.580Z,99.00
2022-11-15T18:51:54.127Z,99.40
2022-11-15T18:54:28.048Z,99.50
2022-11-15T18:56:57.402Z,99.30
2022-11-15T18:59:27.530Z,99.30
2022-11-15T19:01:55.940Z,99.40
2022-11-15T19:04:23.667Z,99.50
2022-11-15T19:06:52.802Z,99.60
2022-11-15T19:09:20.426Z,99.50
2022-11-15T19:11:51.678Z,99.40
2022-11-15T19:14:19.824Z,99.60
2022-11-15T19:16:50.083Z,99.60
2022-11-15T19:19:18.514Z,99.60
2022-11-15T19:21:46.952Z,99.50
2022-11-15T19:24:15.315Z,99.30
2022-11-15T19:26:43.097Z,99.30
2022-11-15T19:29:12.341Z,99.20
2022-11-15T19:31:39.935Z,99.10
2022-11-15T19:34:08.377Z,99.10
2022-11-15T19:36:37.200Z,99.20
2022-11-15T19:39:08.247Z,99.20
2022-11-15T19:41:36.343Z,98.90
2022-11-15T19:44:03.981Z,98.70
2022-11-15T19:46:33.051Z,98.60
2022-11-15T19:49:00.799Z,98.60
2022-11-15T19:51:29.256Z,98.70
2022-11-15T19:53:58.090Z,98.60
2022-11-15T19:56:25.625Z,98.50
2022-11-15T19:58:54.003Z,98.70
2022-11-15T20:01:23.103Z,98.30
2022-11-15T20:03:54.436Z,98.10
2022-11-15T20:06:23.069Z,98.10
2022-11-15T20:08:50.950Z,98.00
2022-11-15T20:11:18.690Z,98.00
2022-11-15T20:13:46.771Z,97.90
2022-11-15T20:16:16.447Z,97.90
2022-11-15T20:18:44.200Z,97.90
2022-11-15T20:21:13.360Z,97.70
2022-11-15T20:23:44.166Z,97.80
2022-11-15T20:26:12.449Z,97.70
2022-11-15T20:28:40.264Z,97.50
2022-11-15T20:31:08.422Z,97.50
2022-11-15T20:33:36.252Z,97.30
2022-11-15T20:36:04.470Z,97.00
2022-11-15T20:38:34.508Z,97.20
2022-11-15T20:41:02.445Z,97.20
2022-11-15T20:43:30.230Z,97.10
2022-11-15T20:45:57.825Z,96.90
2022-11-15T20:48:25.534Z,96.80
2022-11-15T20:50:53.224Z,96.80
2022-11-15T20:53:21.013Z,96.90
2022-11-15T20:55:50.943Z,96.90
2022-11-15T20:58:19.375Z,96.50
2022-11-15T21:00:47.280Z,96.40
2022-11-15T21:03:15.546Z,96.30
2022-11-15T21:05:43.901Z,96.30
2022-11-15T21:08:12.121Z,96.50
2022-11-15T21:10:58.337Z,96.40
2022-11-15T21:13:27.595Z,96.20
2022-11-15T21:15:56.307Z,96.40
2022-11-15T21:18:23.880Z,96.20
2022-11-15T21:20:52.045Z,96.40
2022-11-15T21:23:19.637Z,96.40
2022-11-15T21:25:49.606Z,96.30
2022-11-15T21:28:17.434Z,96.10
2022-11-15T21:30:54.009Z,96.10
2022-11-15T21:33:23.778Z,96.10
2022-11-15T21:35:51.935Z,95.90
2022-11-15T21:38:19.517Z,95.90
2022-11-15T21:40:47.140Z,96.00
2022-11-15T21:43:15.689Z,95.90
2022-11-15T21:45:43.294Z,96.00
2022-11-15T21:48:12.309Z,96.00
2022-11-15T21:50:39.839Z,95.80
2022-11-15T21:53:07.418Z,95.90
2022-11-15T21:55:34.963Z,95.90
2022-11-15T21:58:03.019Z,95.80
2022-11-15T22:00:48.796Z,95.60
2022-11-15T22:03:17.750Z,95.60
2022-11-15T22:05:45.349Z,95.30
2022-11-15T22:08:12.918Z,95.50
2022-11-15T22:10:40.642Z,95.20
2022-11-15T22:13:08.205Z,95.20
2022-11-15T22:15:35.751Z,95.20
2022-11-15T22:18:03.343Z,95.20
2022-11-15T22:20:48.007Z,95.20
2022-11-15T22:23:15.617Z,95.00
2022-11-15T22:25:44.061Z,95.10
2022-11-15T22:28:11.663Z,95.30
2022-11-15T22:30:40.974Z,95.30
2022-11-15T22:33:08.613Z,95.30
2022-11-15T22:35:38.519Z,95.40
2022-11-15T22:38:06.262Z,95.30
2022-11-15T22:40:33.896Z,95.40
2022-11-15T22:43:01.554Z,95.20
2022-11-15T22:45:29.768Z,95.30
2022-11-15T22:47:57.432Z,95.20
2022-11-15T22:50:25.113Z,95.30
2022-11-15T22:52:53.976Z,95.30
2022-11-15T22:55:21.608Z,95.20
2022-11-15T22:57:49.172Z,95.30
2022-11-15T23:00:17.882Z,95.50
2022-11-15T23:02:45.427Z,95.60
2022-11-15T23:05:13.071Z,95.60
2022-11-15T23:07:40.778Z,95.70
2022-11-15T23:10:28.070Z,95.50
2022-11-15T23:13:13.120Z,95.50
2022-11-15T23:15:58.088Z,96.00
2022-11-15T23:18:25.660Z,95.80
2022-11-15T23:20:53.274Z,95.90
2022-11-15T23:23:20.067Z,96.20
2022-11-15T23:25:48.960Z,96.30
2022-11-15T23:28:16.523Z,96.40
2022-11-15T23:31:01.507Z,96.20
2022-11-15T23:33:46.594Z,96.50
2022-11-15T23:36:14.142Z,96.70
2022-11-15T23:38:41.870Z,97.00
2022-11-15T23:41:10.723Z,96.60
2022-11-15T23:43:38.326Z,97.10
2022-11-15T23:46:05.921Z,97.20
2022-11-15T23:48:33.807Z,97.40
2022-11-15T23:51:01.524Z,97.40
2022-11-15T23:53:29.142Z,97.40
2022-11-15T23:55:57.419Z,97.40
2022-11-15T23:58:26.471Z,97.30
